createdAt,value
2023-01-31T00:05:39.761Z,20.877991
2023-01-31T00:06:39.821Z,20.86792
2023-01-31T00:08:39.241Z,20.86792
2023-01-31T00:09:39.148Z,20.86792
2023-01-31T00:10:39.029Z,20.877991
2023-01-31T00:11:38.834Z,20.86792
2023-01-31T00:12:38.730Z,20.86792
2023-01-31T00:13:38.672Z,20.86792
2023-01-31T00:14:38.725Z,20.86792
2023-01-31T00:15:38.599Z,20.847778
2023-01-31T00:16:38.797Z,20.847778
2023-01-31T00:17:38.463Z,20.86792
2023-01-31T00:18:38.458Z,20.847778
2023-01-31T00:19:37.966Z,20.847778
2023-01-31T00:20:37.783Z,20.827637
2023-01-31T00:21:37.676Z,20.847778
2023-01-31T00:22:37.470Z,20.827637
2023-01-31T00:23:37.391Z,20.827637
2023-01-31T00:24:37.296Z,20.827637
2023-01-31T00:25:37.295Z,20.827637
2023-01-31T00:26:37.532Z,20.827637
2023-01-31T00:27:37.258Z,20.827637
2023-01-31T00:28:37.337Z,20.817566
2023-01-31T00:29:36.684Z,20.817566
2023-01-31T00:30:36.539Z,20.817566
2023-01-31T00:31:36.598Z,20.817566
2023-01-31T00:32:36.350Z,20.817566
2023-01-31T00:33:36.260Z,20.807495
2023-01-31T00:34:36.069Z,20.807495
2023-01-31T00:35:36.158Z,20.807495
2023-01-31T00:36:36.317Z,20.807495
2023-01-31T00:37:35.995Z,20.817566
2023-01-31T00:38:35.707Z,20.807495
2023-01-31T00:39:35.954Z,20.787354
2023-01-31T00:40:35.397Z,20.807495
2023-01-31T00:41:35.365Z,20.807495
2023-01-31T00:42:35.153Z,20.787354
2023-01-31T00:43:35.021Z,20.787354
2023-01-31T00:44:34.920Z,20.807495
2023-01-31T00:45:34.866Z,20.787354
2023-01-31T00:46:35.069Z,20.777283
2023-01-31T00:47:34.723Z,20.787354
2023-01-31T00:48:34.921Z,20.787354
2023-01-31T00:49:34.899Z,20.777283
2023-01-31T00:50:34.836Z,20.777283
2023-01-31T00:51:34.678Z,20.777283
2023-01-31T00:52:34.004Z,20.777283
2023-01-31T00:53:33.893Z,20.777283
2023-01-31T00:54:33.668Z,20.757141
2023-01-31T00:55:33.603Z,20.777283
2023-01-31T00:56:33.465Z,20.777283
2023-01-31T00:57:33.398Z,20.777283
2023-01-31T00:58:33.333Z,20.757141
2023-01-31T00:59:33.097Z,20.757141
2023-01-31T01:00:34.496Z,20.74707
2023-01-31T01:01:32.928Z,20.757141
2023-01-31T01:02:32.873Z,20.74707
2023-01-31T01:03:32.643Z,20.757141
2023-01-31T01:04:32.518Z,20.74707
2023-01-31T01:05:32.494Z,20.74707
2023-01-31T01:06:32.248Z,20.74707
2023-01-31T01:07:32.253Z,20.74707
2023-01-31T01:08:32.094Z,20.74707
2023-01-31T01:09:32.013Z,20.757141
2023-01-31T01:10:31.849Z,20.726929
2023-01-31T01:11:31.673Z,20.726929
2023-01-31T01:12:31.577Z,20.74707
2023-01-31T01:13:31.535Z,20.726929
2023-01-31T01:14:31.587Z,20.726929
2023-01-31T01:15:31.271Z,20.726929
2023-01-31T01:16:31.124Z,20.726929
2023-01-31T01:17:30.977Z,20.726929
2023-01-31T01:18:30.911Z,20.726929
2023-01-31T01:19:30.726Z,20.726929
2023-01-31T01:20:30.624Z,20.726929
2023-01-31T01:21:30.628Z,20.716858
2023-01-31T01:22:30.418Z,20.716858
2023-01-31T01:23:30.248Z,20.716858
2023-01-31T01:24:30.148Z,20.706787
2023-01-31T01:25:30.066Z,20.716858
2023-01-31T01:26:30.095Z,20.706787
2023-01-31T01:27:29.836Z,20.706787
2023-01-31T01:28:29.833Z,20.706787
2023-01-31T01:29:29.564Z,20.706787
2023-01-31T01:30:29.467Z,20.706787
2023-01-31T01:31:29.439Z,20.706787
2023-01-31T01:32:29.275Z,20.706787
2023-01-31T01:33:29.106Z,20.706787
2023-01-31T01:34:28.998Z,20.706787
2023-01-31T01:35:28.850Z,20.706787
2023-01-31T01:36:28.750Z,20.706787
2023-01-31T01:37:28.686Z,20.706787
2023-01-31T01:38:28.662Z,20.706787
2023-01-31T01:39:28.442Z,20.686646
2023-01-31T01:40:28.394Z,20.686646
2023-01-31T01:41:28.156Z,20.686646
2023-01-31T01:42:28.051Z,20.676575
2023-01-31T01:43:27.937Z,20.686646
2023-01-31T01:44:27.861Z,20.676575
2023-01-31T01:45:27.696Z,20.686646
2023-01-31T01:46:27.601Z,20.676575
2023-01-31T01:47:27.520Z,20.686646
2023-01-31T01:48:27.402Z,20.656433
2023-01-31T01:49:27.226Z,20.676575
2023-01-31T01:50:27.121Z,20.656433
2023-01-31T01:51:26.963Z,20.656433
2023-01-31T01:52:26.886Z,20.636292
2023-01-31T01:53:26.745Z,20.656433
2023-01-31T01:54:26.617Z,20.656433
2023-01-31T01:55:26.577Z,20.626221
2023-01-31T01:56:26.404Z,20.636292
2023-01-31T01:57:26.263Z,20.626221
2023-01-31T01:58:26.239Z,20.636292
2023-01-31T01:59:26.024Z,20.636292
2023-01-31T02:00:25.908Z,20.626221
2023-01-31T02:01:25.788Z,20.636292
2023-01-31T02:02:25.706Z,20.626221
2023-01-31T02:03:25.595Z,20.636292
2023-01-31T02:04:25.463Z,20.626221
2023-01-31T02:05:25.501Z,20.626221
2023-01-31T02:06:25.313Z,20.626221
2023-01-31T02:07:25.116Z,20.636292
2023-01-31T02:08:25.003Z,20.606079
2023-01-31T02:09:24.922Z,20.626221
2023-01-31T02:10:24.819Z,20.626221
2023-01-31T02:11:24.672Z,20.626221
2023-01-31T02:12:24.512Z,20.606079
2023-01-31T02:13:24.453Z,20.636292
2023-01-31T02:14:24.324Z,20.626221
2023-01-31T02:15:24.162Z,20.626221
2023-01-31T02:16:24.052Z,20.606079
2023-01-31T02:17:23.994Z,20.626221
2023-01-31T02:18:23.917Z,20.626221
2023-01-31T02:19:23.808Z,20.626221
2023-01-31T02:20:23.615Z,20.626221
2023-01-31T02:21:23.480Z,20.606079
2023-01-31T02:22:23.437Z,20.626221
2023-01-31T02:23:23.334Z,20.606079
2023-01-31T02:24:23.149Z,20.626221
2023-01-31T02:25:23.261Z,20.626221
2023-01-31T02:26:22.945Z,20.596008
2023-01-31T02:27:22.757Z,20.606079
2023-01-31T02:28:22.703Z,20.606079
2023-01-31T02:29:22.531Z,20.626221
2023-01-31T02:30:22.469Z,20.606079
2023-01-31T02:31:22.411Z,20.606079
2023-01-31T02:32:22.189Z,20.596008
2023-01-31T02:33:22.199Z,20.596008
2023-01-31T02:34:21.948Z,20.606079
2023-01-31T02:35:22.224Z,20.606079
2023-01-31T02:36:21.747Z,20.596008
2023-01-31T02:37:22.644Z,20.606079
2023-01-31T02:38:21.479Z,20.606079
2023-01-31T02:39:21.386Z,20.606079
2023-01-31T02:40:21.327Z,20.606079
2023-01-31T02:41:21.131Z,20.606079
2023-01-31T02:42:21.011Z,20.606079
2023-01-31T02:43:20.990Z,20.606079
2023-01-31T02:44:20.790Z,20.606079
2023-01-31T02:45:20.956Z,20.596008
2023-01-31T02:46:20.548Z,20.596008
2023-01-31T02:47:20.478Z,20.596008
2023-01-31T02:48:21.474Z,20.596008
2023-01-31T02:49:20.331Z,20.596008
2023-01-31T02:50:20.194Z,20.596008
2023-01-31T02:51:20.173Z,20.596008
2023-01-31T02:52:20.016Z,20.596008
2023-01-31T02:53:19.803Z,20.596008
2023-01-31T02:54:19.741Z,20.606079
2023-01-31T02:55:19.920Z,20.606079
2023-01-31T02:56:19.509Z,20.606079
2023-01-31T02:57:19.428Z,20.596008
2023-01-31T02:58:19.288Z,20.606079
2023-01-31T02:59:19.140Z,20.575867
2023-01-31T03:00:19.103Z,20.596008
2023-01-31T03:01:18.967Z,20.575867
2023-01-31T03:02:18.898Z,20.596008
2023-01-31T03:03:18.751Z,20.565796
2023-01-31T03:04:18.738Z,20.575867
2023-01-31T03:05:18.941Z,20.596008
2023-01-31T03:06:18.437Z,20.575867
2023-01-31T03:07:18.308Z,20.575867
2023-01-31T03:08:18.226Z,20.575867
2023-01-31T03:09:18.044Z,20.575867
2023-01-31T03:10:18.096Z,20.575867
2023-01-31T03:11:17.828Z,20.575867
2023-01-31T03:12:17.742Z,20.575867
2023-01-31T03:13:17.615Z,20.575867
2023-01-31T03:14:17.526Z,20.565796
2023-01-31T03:15:17.419Z,20.596008
2023-01-31T03:16:17.275Z,20.565796
2023-01-31T03:17:17.179Z,20.565796
2023-01-31T03:18:17.057Z,20.575867
2023-01-31T03:19:17.063Z,20.575867
2023-01-31T03:20:16.885Z,20.575867
2023-01-31T03:21:16.704Z,20.575867
2023-01-31T03:22:16.703Z,20.565796
2023-01-31T03:23:17.506Z,20.565796
2023-01-31T03:24:16.421Z,20.575867
2023-01-31T03:25:16.434Z,20.565796
2023-01-31T03:26:16.186Z,20.565796
2023-01-31T03:27:16.098Z,20.565796
2023-01-31T03:28:15.978Z,20.555725
2023-01-31T03:29:15.870Z,20.565796
2023-01-31T03:30:15.784Z,20.565796
2023-01-31T03:31:15.813Z,20.565796
2023-01-31T03:32:15.592Z,20.555725
2023-01-31T03:33:15.468Z,20.535583
2023-01-31T03:34:15.363Z,20.555725
2023-01-31T03:35:15.203Z,20.555725
2023-01-31T03:36:15.115Z,20.555725
2023-01-31T03:37:15.073Z,20.565796
2023-01-31T03:38:14.922Z,20.555725
2023-01-31T03:39:14.865Z,20.555725
2023-01-31T03:40:14.719Z,20.555725
2023-01-31T03:41:14.584Z,20.555725
2023-01-31T03:42:14.616Z,20.535583
2023-01-31T03:43:14.371Z,20.555725
2023-01-31T03:44:14.203Z,20.555725
2023-01-31T03:45:14.101Z,20.565796
2023-01-31T03:46:13.954Z,20.535583
2023-01-31T03:47:13.980Z,20.535583
2023-01-31T03:48:13.776Z,20.525513
2023-01-31T03:49:13.620Z,20.535583
2023-01-31T03:50:13.577Z,20.535583
2023-01-31T03:51:13.435Z,20.535583
2023-01-31T03:52:13.312Z,20.535583
2023-01-31T03:53:13.321Z,20.535583
2023-01-31T03:54:13.120Z,20.525513
2023-01-31T03:55:13.014Z,20.525513
2023-01-31T03:56:12.936Z,20.535583
2023-01-31T03:57:12.809Z,20.535583
2023-01-31T03:58:12.656Z,20.535583
2023-01-31T03:59:12.571Z,20.535583
2023-01-31T04:00:12.462Z,20.535583
2023-01-31T04:01:12.349Z,20.535583
2023-01-31T04:02:12.275Z,20.525513
2023-01-31T04:03:12.167Z,20.535583
2023-01-31T04:04:12.037Z,20.525513
2023-01-31T04:05:11.955Z,20.525513
2023-01-31T04:06:11.776Z,20.525513
2023-01-31T04:07:11.732Z,20.535583
2023-01-31T04:08:11.587Z,20.525513
2023-01-31T04:09:12.447Z,20.525513
2023-01-31T04:10:11.347Z,20.505371
2023-01-31T04:11:11.234Z,20.505371
2023-01-31T04:12:11.130Z,20.505371
2023-01-31T04:13:11.030Z,20.505371
2023-01-31T04:14:10.891Z,20.505371
2023-01-31T04:15:10.853Z,20.525513
2023-01-31T04:16:10.758Z,20.505371
2023-01-31T04:17:11.565Z,20.505371
2023-01-31T04:18:10.509Z,20.505371
2023-01-31T04:19:10.412Z,20.505371
2023-01-31T04:20:10.358Z,20.505371
2023-01-31T04:21:10.175Z,20.4953
2023-01-31T04:22:10.094Z,20.505371
2023-01-31T04:23:09.968Z,20.4953
2023-01-31T04:24:09.798Z,20.4953
2023-01-31T04:25:09.723Z,20.4953
2023-01-31T04:26:09.594Z,20.4953
2023-01-31T04:27:09.519Z,20.505371
2023-01-31T04:28:09.348Z,20.4953
2023-01-31T04:29:09.296Z,20.4953
2023-01-31T04:30:09.190Z,20.4953
2023-01-31T04:31:09.078Z,20.4953
2023-01-31T04:32:08.963Z,20.4953
2023-01-31T04:33:09.060Z,20.4953
2023-01-31T04:34:08.752Z,20.4953
2023-01-31T04:35:08.617Z,20.4953
2023-01-31T04:36:08.576Z,20.505371
2023-01-31T04:37:08.424Z,20.4953
2023-01-31T04:38:08.286Z,20.4953
2023-01-31T04:39:08.176Z,20.4953
2023-01-31T04:40:08.130Z,20.4953
2023-01-31T04:41:07.940Z,20.4953
2023-01-31T04:42:07.897Z,20.475159
2023-01-31T04:43:07.772Z,20.4953
2023-01-31T04:44:07.688Z,20.475159
2023-01-31T04:45:07.581Z,20.4953
2023-01-31T04:46:07.477Z,20.475159
2023-01-31T04:47:07.291Z,20.475159
2023-01-31T04:48:07.282Z,20.475159
2023-01-31T04:49:07.170Z,20.455017
2023-01-31T04:50:06.984Z,20.455017
2023-01-31T04:51:06.846Z,20.455017
2023-01-31T04:52:06.848Z,20.475159
2023-01-31T04:53:06.698Z,20.475159
2023-01-31T04:54:06.573Z,20.455017
2023-01-31T04:55:06.428Z,20.455017
2023-01-31T04:56:06.380Z,20.444946
2023-01-31T04:57:06.217Z,20.455017
2023-01-31T04:58:07.072Z,20.455017
2023-01-31T04:59:05.984Z,20.455017
2023-01-31T05:00:05.899Z,20.444946
2023-01-31T05:01:05.835Z,20.455017
2023-01-31T05:02:05.681Z,20.455017
2023-01-31T05:03:05.605Z,20.455017
2023-01-31T05:04:05.491Z,20.444946
2023-01-31T05:05:05.338Z,20.455017
2023-01-31T05:06:05.220Z,20.455017
2023-01-31T05:07:05.167Z,20.455017
2023-01-31T05:08:04.987Z,20.444946
2023-01-31T05:09:04.879Z,20.444946
2023-01-31T05:10:04.842Z,20.444946
2023-01-31T05:11:04.958Z,20.444946
2023-01-31T05:12:04.569Z,20.455017
2023-01-31T05:13:04.511Z,20.424805
2023-01-31T05:14:04.357Z,20.444946
2023-01-31T05:15:04.204Z,20.444946
2023-01-31T05:16:04.143Z,20.444946
2023-01-31T05:17:03.993Z,20.444946
2023-01-31T05:18:03.994Z,20.424805
2023-01-31T05:19:03.809Z,20.444946
2023-01-31T05:20:03.692Z,20.444946
2023-01-31T05:21:03.602Z,20.444946
2023-01-31T05:22:03.490Z,20.444946
2023-01-31T05:23:03.340Z,20.444946
2023-01-31T05:24:03.302Z,20.424805
2023-01-31T05:25:03.186Z,20.444946
2023-01-31T05:26:03.035Z,20.414734
2023-01-31T05:27:03.023Z,20.424805
2023-01-31T05:28:02.885Z,20.424805
2023-01-31T05:29:02.865Z,20.424805
2023-01-31T05:30:02.724Z,20.444946
2023-01-31T05:31:02.572Z,20.414734
2023-01-31T05:32:02.645Z,20.424805
2023-01-31T05:33:02.386Z,20.424805
2023-01-31T05:34:02.274Z,20.414734
2023-01-31T05:35:02.084Z,20.424805
2023-01-31T05:36:02.027Z,20.424805
2023-01-31T05:37:01.899Z,20.444946
2023-01-31T05:38:01.854Z,20.444946
2023-01-31T05:39:01.654Z,20.444946
2023-01-31T05:40:01.636Z,20.455017
2023-01-31T05:41:01.488Z,20.444946
2023-01-31T05:42:01.354Z,20.455017
2023-01-31T05:43:01.218Z,20.455017
2023-01-31T05:44:01.123Z,20.475159
2023-01-31T05:45:01.102Z,20.475159
2023-01-31T05:46:00.981Z,20.455017
2023-01-31T05:47:00.904Z,20.475159
2023-01-31T05:48:00.666Z,20.4953
2023-01-31T05:49:00.653Z,20.4953
2023-01-31T05:50:00.614Z,20.4953
2023-01-31T05:51:00.436Z,20.4953
2023-01-31T05:52:00.273Z,20.505371
2023-01-31T05:53:00.273Z,20.4953
2023-01-31T05:54:00.073Z,20.4953
2023-01-31T05:54:59.972Z,20.505371
2023-01-31T05:55:59.860Z,20.525513
2023-01-31T05:56:59.859Z,20.505371
2023-01-31T05:57:59.698Z,20.505371
2023-01-31T05:58:59.671Z,20.525513
2023-01-31T05:59:59.408Z,20.525513
2023-01-31T06:00:59.368Z,20.525513
2023-01-31T06:01:59.255Z,20.525513
2023-01-31T06:02:59.147Z,20.525513
2023-01-31T06:03:59.034Z,20.525513
2023-01-31T06:04:58.918Z,20.525513
2023-01-31T06:05:58.800Z,20.535583
2023-01-31T06:06:58.673Z,20.555725
2023-01-31T06:07:58.578Z,20.555725
2023-01-31T06:08:58.492Z,20.535583
2023-01-31T06:09:58.479Z,20.535583
2023-01-31T06:10:58.281Z,20.555725
2023-01-31T06:11:58.157Z,20.555725
2023-01-31T06:12:57.986Z,20.565796
2023-01-31T06:13:58.037Z,20.565796
2023-01-31T06:14:57.797Z,20.565796
2023-01-31T06:15:57.711Z,20.575867
2023-01-31T06:16:57.667Z,20.575867
2023-01-31T06:17:57.508Z,20.575867
2023-01-31T06:18:57.372Z,20.575867
2023-01-31T06:19:57.409Z,20.596008
2023-01-31T06:20:57.139Z,20.596008
2023-01-31T06:21:57.050Z,20.596008
2023-01-31T06:22:56.953Z,20.596008
2023-01-31T06:23:56.857Z,20.596008
2023-01-31T06:24:56.749Z,20.606079
2023-01-31T06:25:56.696Z,20.626221
2023-01-31T06:26:56.499Z,20.606079
2023-01-31T06:27:56.404Z,20.626221
2023-01-31T06:28:56.277Z,20.626221
2023-01-31T06:29:56.283Z,20.636292
2023-01-31T06:30:56.265Z,20.636292
2023-01-31T06:31:55.993Z,20.636292
2023-01-31T06:32:55.856Z,20.656433
2023-01-31T06:33:55.818Z,20.656433
2023-01-31T06:34:55.701Z,20.656433
2023-01-31T06:35:55.568Z,20.656433
2023-01-31T06:36:55.488Z,20.656433
2023-01-31T06:37:55.387Z,20.656433
2023-01-31T06:38:55.332Z,20.676575
2023-01-31T06:39:55.190Z,20.676575
2023-01-31T06:40:55.078Z,20.676575
2023-01-31T06:41:55.061Z,20.686646
2023-01-31T06:42:54.928Z,20.686646
2023-01-31T06:43:54.785Z,20.676575
2023-01-31T06:44:54.589Z,20.686646
2023-01-31T06:45:54.524Z,20.686646
2023-01-31T06:46:54.404Z,20.686646
2023-01-31T06:47:54.341Z,20.706787
2023-01-31T06:48:54.221Z,20.686646
2023-01-31T06:49:54.104Z,20.706787
2023-01-31T06:50:54.048Z,20.706787
2023-01-31T06:51:53.954Z,20.716858
2023-01-31T06:52:53.838Z,20.716858
2023-01-31T06:53:53.660Z,20.716858
2023-01-31T06:54:53.627Z,20.716858
2023-01-31T06:55:53.526Z,20.716858
2023-01-31T06:56:53.353Z,20.726929
2023-01-31T06:57:53.272Z,20.74707
2023-01-31T06:58:53.193Z,20.726929
2023-01-31T06:59:53.099Z,20.726929
2023-01-31T07:00:53.028Z,20.74707
2023-01-31T07:01:52.870Z,20.726929
2023-01-31T07:02:52.715Z,20.74707
2023-01-31T07:03:52.609Z,20.726929
2023-01-31T07:04:52.491Z,20.74707
2023-01-31T07:05:52.508Z,20.74707
2023-01-31T07:06:52.298Z,20.74707
2023-01-31T07:07:52.193Z,20.757141
2023-01-31T07:08:52.095Z,20.757141
2023-01-31T07:09:52.027Z,20.757141
2023-01-31T07:10:51.912Z,20.757141
2023-01-31T07:11:51.812Z,20.777283
2023-01-31T07:12:51.659Z,20.757141
2023-01-31T07:13:51.578Z,20.777283
2023-01-31T07:14:51.570Z,20.757141
2023-01-31T07:15:51.409Z,20.787354
2023-01-31T07:16:51.272Z,20.777283
2023-01-31T07:17:51.163Z,20.787354
2023-01-31T07:18:51.063Z,20.807495
2023-01-31T07:19:50.942Z,20.787354
2023-01-31T07:20:50.875Z,20.787354
2023-01-31T07:21:50.755Z,20.807495
2023-01-31T07:22:50.625Z,20.807495
2023-01-31T07:23:50.552Z,20.807495
2023-01-31T07:24:50.465Z,20.817566
2023-01-31T07:25:50.328Z,20.817566
2023-01-31T07:26:50.196Z,20.817566
2023-01-31T07:27:51.097Z,20.817566
2023-01-31T07:28:49.985Z,20.817566
2023-01-31T07:29:49.865Z,20.817566
2023-01-31T07:30:49.900Z,20.817566
2023-01-31T07:31:49.691Z,20.827637
2023-01-31T07:32:49.657Z,20.817566
2023-01-31T07:33:49.495Z,20.827637
2023-01-31T07:34:49.426Z,20.827637
2023-01-31T07:35:49.247Z,20.847778
2023-01-31T07:36:49.167Z,20.847778
2023-01-31T07:37:49.139Z,20.847778
2023-01-31T07:38:48.948Z,20.847778
2023-01-31T07:39:48.834Z,20.86792
2023-01-31T07:40:48.807Z,20.847778
2023-01-31T07:41:48.634Z,20.86792
2023-01-31T07:42:48.523Z,20.86792
2023-01-31T07:43:48.502Z,20.86792
2023-01-31T07:44:48.340Z,20.86792
2023-01-31T07:45:48.316Z,20.877991
2023-01-31T07:46:48.134Z,20.86792
2023-01-31T07:47:48.069Z,20.86792
2023-01-31T07:48:47.889Z,20.877991
2023-01-31T07:49:47.821Z,20.877991
2023-01-31T07:50:47.684Z,20.877991
2023-01-31T07:51:47.668Z,20.877991
2023-01-31T07:52:47.476Z,20.877991
2023-01-31T07:53:47.375Z,20.898132
2023-01-31T07:54:47.205Z,20.898132
2023-01-31T07:55:47.209Z,20.898132
2023-01-31T07:56:47.038Z,20.898132
2023-01-31T07:57:46.960Z,20.898132
2023-01-31T07:58:46.883Z,20.898132
2023-01-31T07:59:46.851Z,20.898132
2023-01-31T08:00:46.543Z,20.898132
2023-01-31T08:01:48.470Z,20.877991
2023-01-31T08:02:46.408Z,20.898132
2023-01-31T08:03:46.277Z,20.908203
2023-01-31T08:04:46.162Z,20.898132
2023-01-31T08:05:46.036Z,20.908203
2023-01-31T08:06:45.961Z,20.908203
2023-01-31T08:07:45.961Z,20.928345
2023-01-31T08:08:45.709Z,20.928345
2023-01-31T08:09:45.636Z,20.938416
2023-01-31T08:10:45.554Z,20.928345
2023-01-31T08:11:45.611Z,20.938416
2023-01-31T08:12:45.297Z,20.938416
2023-01-31T08:13:45.202Z,20.938416
2023-01-31T08:14:45.051Z,20.928345
2023-01-31T08:15:45.013Z,20.958557
2023-01-31T08:16:44.915Z,20.938416
2023-01-31T08:17:44.829Z,20.968628
2023-01-31T08:18:44.740Z,20.968628
2023-01-31T08:19:44.555Z,20.968628
2023-01-31T08:20:44.473Z,20.968628
2023-01-31T08:21:44.343Z,20.978699
2023-01-31T08:22:44.267Z,20.99884
2023-01-31T08:23:44.172Z,20.99884
2023-01-31T08:24:44.031Z,20.99884
2023-01-31T08:25:43.991Z,20.99884
2023-01-31T08:26:43.884Z,21.008911
2023-01-31T08:27:43.707Z,21.008911
2023-01-31T08:28:43.528Z,21.029053
2023-01-31T08:29:43.454Z,21.029053
2023-01-31T08:30:45.110Z,21.049194
2023-01-31T08:31:43.367Z,21.049194
2023-01-31T08:32:43.127Z,21.049194
2023-01-31T08:33:43.056Z,21.059265
2023-01-31T08:34:42.998Z,21.059265
2023-01-31T08:35:42.786Z,21.059265
2023-01-31T08:36:42.807Z,21.079407
2023-01-31T08:37:42.579Z,21.079407
2023-01-31T08:38:42.558Z,21.089478
2023-01-31T08:39:42.397Z,21.109619
2023-01-31T08:40:42.284Z,21.109619
2023-01-31T08:41:42.301Z,21.11969
2023-01-31T08:42:42.098Z,21.11969
2023-01-31T08:43:54.733Z,21.11969
2023-01-31T08:44:41.941Z,21.11969
2023-01-31T08:45:41.752Z,21.11969
2023-01-31T08:46:41.660Z,21.129761
2023-01-31T08:47:41.583Z,21.129761
2023-01-31T08:48:41.522Z,21.129761
2023-01-31T08:49:41.323Z,21.149902
2023-01-31T08:50:41.193Z,21.149902
2023-01-31T08:51:41.088Z,21.159973
2023-01-31T08:52:41.051Z,21.159973
2023-01-31T08:53:40.922Z,21.159973
2023-01-31T08:54:40.838Z,21.159973
2023-01-31T08:55:40.672Z,21.159973
2023-01-31T08:56:40.544Z,21.180115
2023-01-31T08:57:49.050Z,21.190186
2023-01-31T08:58:41.373Z,21.180115
2023-01-31T08:59:40.251Z,21.210327
2023-01-31T09:00:40.196Z,21.210327
2023-01-31T09:01:40.081Z,21.210327
2023-01-31T09:02:40.380Z,21.220398
2023-01-31T09:03:39.819Z,21.220398
2023-01-31T09:04:39.761Z,21.210327
2023-01-31T09:05:39.688Z,21.220398
2023-01-31T09:06:39.524Z,21.210327
2023-01-31T09:07:39.515Z,21.220398
2023-01-31T09:08:39.447Z,21.210327
2023-01-31T09:09:39.238Z,21.220398
2023-01-31T09:10:39.207Z,21.210327
2023-01-31T09:11:39.099Z,21.210327
2023-01-31T09:12:39.012Z,21.210327
2023-01-31T09:13:38.827Z,21.210327
2023-01-31T09:14:38.701Z,21.210327
2023-01-31T09:15:38.688Z,21.210327
2023-01-31T09:16:38.521Z,21.210327
2023-01-31T09:17:38.714Z,21.220398
2023-01-31T09:18:38.266Z,21.260681
2023-01-31T09:19:38.303Z,21.260681
2023-01-31T09:20:38.089Z,21.270752
2023-01-31T09:21:38.032Z,21.260681
2023-01-31T09:22:37.925Z,21.24054
2023-01-31T09:23:40.034Z,21.210327
2023-01-31T09:24:37.745Z,21.159973
2023-01-31T09:25:45.570Z,21.129761
2023-01-31T09:26:37.545Z,21.089478
2023-01-31T09:27:37.506Z,21.079407
2023-01-31T09:28:37.363Z,21.059265
2023-01-31T09:29:37.130Z,20.978699
2023-01-31T09:30:37.005Z,20.877991
2023-01-31T09:31:38.107Z,20.787354
2023-01-31T09:32:36.828Z,20.686646
2023-01-31T09:33:36.737Z,20.596008
2023-01-31T09:34:36.588Z,20.505371
2023-01-31T09:35:36.532Z,20.414734
2023-01-31T09:36:36.383Z,20.334167
2023-01-31T09:37:36.299Z,20.263672
2023-01-31T09:38:36.174Z,20.193176
2023-01-31T09:39:36.116Z,20.152893
2023-01-31T09:40:36.044Z,20.082397
2023-01-31T09:41:35.922Z,20.011902
2023-01-31T09:42:35.749Z,19.951477
2023-01-31T09:43:35.676Z,19.901123
2023-01-31T09:44:35.671Z,19.830627
2023-01-31T09:45:35.468Z,19.760132
2023-01-31T10:10:33.004Z,19.679565
2023-01-31T10:18:32.281Z,19.850769
2023-01-31T10:19:32.208Z,19.830627
2023-01-31T10:20:32.170Z,19.850769
2023-01-31T10:22:31.877Z,19.850769
2023-01-31T10:23:31.765Z,19.870911
2023-01-31T10:24:31.949Z,19.870911
2023-01-31T10:25:31.800Z,19.891052
2023-01-31T10:26:32.029Z,19.870911
2023-01-31T10:27:31.565Z,19.870911
2023-01-31T10:28:31.313Z,19.891052
2023-01-31T10:29:31.310Z,19.891052
2023-01-31T10:30:31.651Z,19.870911
2023-01-31T10:31:31.619Z,19.891052
2023-01-31T10:32:30.913Z,19.891052
2023-01-31T10:33:30.880Z,19.891052
2023-01-31T10:34:30.682Z,19.891052
2023-01-31T10:35:30.711Z,19.901123
2023-01-31T10:36:30.723Z,19.891052
2023-01-31T10:37:30.499Z,19.901123
2023-01-31T10:38:30.445Z,19.921265
2023-01-31T10:39:30.483Z,19.921265
2023-01-31T10:40:30.347Z,19.941406
2023-01-31T10:41:30.287Z,19.971619
2023-01-31T10:42:30.364Z,19.981689
2023-01-31T10:43:30.319Z,20.001831
2023-01-31T10:44:30.260Z,20.001831
2023-01-31T10:45:30.292Z,20.021973
2023-01-31T10:46:30.270Z,20.072327
2023-01-31T10:47:56.323Z,20.203247
2023-01-31T10:48:56.333Z,20.334167
2023-01-31T10:49:56.331Z,20.455017
2023-01-31T10:50:56.291Z,20.565796
2023-01-31T10:51:56.364Z,20.706787
2023-01-31T10:52:56.268Z,20.807495
2023-01-31T10:53:56.312Z,20.908203
2023-01-31T10:54:56.282Z,20.99884
2023-01-31T10:55:56.254Z,21.079407
2023-01-31T10:56:56.232Z,21.129761
2023-01-31T10:57:56.391Z,21.190186
2023-01-31T10:58:56.243Z,21.260681
2023-01-31T10:59:43.452Z,21.280823
2023-01-31T11:05:19.442Z,21.814575
